createdAt,value
2018-02-13T17:22:06.372Z,3.87
2018-02-13T17:24:34.979Z,1.93
2018-02-13T17:27:04.321Z,2.43
2018-02-13T17:33:03.380Z,5.67
2018-02-13T17:35:31.725Z,5.00
2018-02-13T17:37:59.984Z,4.97
2018-02-13T17:40:28.318Z,4.90
2018-02-13T17:42:56.597Z,6.33
2018-02-13T17:45:24.881Z,5.27
2018-02-13T17:47:53.229Z,5.97
2018-02-13T17:50:21.668Z,7.37
2018-02-13T17:52:50.816Z,6.43
2018-02-13T17:55:19.173Z,6.13
2018-02-13T17:57:47.480Z,6.80
2018-02-13T18:00:15.817Z,7.53
2018-02-13T18:02:44.125Z,9.17
2018-02-13T18:05:12.469Z,11.50
2018-02-13T18:07:40.720Z,8.57
2018-02-13T18:10:09.872Z,9.10
2018-02-13T18:12:38.236Z,9.87
2018-02-13T18:15:06.527Z,7.80
2018-02-13T18:17:34.891Z,9.83
2018-02-13T18:20:03.171Z,8.30
2018-02-13T18:22:31.713Z,12.80
2018-02-13T18:25:01.072Z,9.40
2018-02-13T18:27:29.476Z,15.40
2018-02-13T18:29:58.752Z,9.47
2018-02-13T18:32:27.339Z,11.47
2018-02-13T18:34:55.688Z,7.40
2018-02-13T18:37:24.200Z,7.30
2018-02-13T18:39:52.672Z,7.27
2018-02-13T18:42:21.152Z,13.47
2018-02-13T18:44:49.632Z,13.67
2018-02-13T18:47:18.052Z,9.00
2018-02-13T18:49:47.367Z,9.33
2018-02-13T18:54:44.879Z,8.50
2018-02-13T18:57:13.345Z,8.20
2018-02-13T18:59:41.812Z,7.03
2018-02-13T19:02:10.292Z,7.83
2018-02-13T19:04:38.790Z,9.10
2018-02-13T19:07:07.249Z,10.47
2018-02-13T19:09:35.770Z,8.90
2018-02-13T19:12:05.667Z,7.90
2018-02-13T19:14:33.949Z,9.60
2018-02-13T19:19:31.730Z,9.47
2018-02-13T19:22:00.077Z,10.27
2018-02-13T19:24:28.580Z,10.13
2018-02-13T19:26:56.979Z,11.43
2018-02-13T19:29:25.487Z,10.57
2018-02-13T19:31:54.971Z,9.60
2018-02-13T19:34:24.672Z,10.07
2018-02-13T19:36:53.029Z,11.50
2018-02-13T19:39:22.531Z,10.00
2018-02-13T19:41:51.181Z,8.73
2018-02-13T19:44:19.698Z,10.47
2018-02-13T19:46:48.200Z,8.00
2018-02-13T19:49:16.674Z,9.23
2018-02-13T19:51:45.160Z,8.97
2018-02-13T19:54:13.627Z,10.27
2018-02-13T19:56:42.023Z,8.70
2018-02-13T19:59:10.468Z,10.53
2018-02-13T20:01:38.990Z,11.10
2018-02-13T20:04:07.292Z,9.70
2018-02-13T20:06:36.356Z,9.30
2018-02-13T20:09:05.032Z,8.80
2018-02-13T20:11:33.487Z,9.67
2018-02-13T20:14:01.969Z,9.50
2018-02-13T20:16:30.474Z,9.33
2018-02-13T20:18:58.931Z,13.30
2018-02-13T20:21:27.319Z,9.27
2018-02-13T20:23:55.934Z,8.10
2018-02-13T20:26:24.492Z,9.97
2018-02-13T20:28:53.091Z,11.80
2018-02-13T20:31:21.680Z,8.40
2018-02-13T20:33:50.207Z,10.43
2018-02-13T20:36:18.739Z,8.33
2018-02-13T20:38:47.110Z,9.40
2018-02-13T20:41:15.592Z,7.90
2018-02-13T20:43:44.781Z,7.83
2018-02-13T20:46:13.423Z,9.23
2018-02-13T20:48:41.985Z,8.40
2018-02-13T20:51:11.158Z,8.10
2018-02-13T20:53:39.719Z,6.77
2018-02-13T20:56:08.212Z,7.37
2018-02-13T20:58:36.699Z,7.67
2018-02-13T21:01:05.128Z,8.27
2018-02-13T21:03:33.652Z,12.53
2018-02-13T21:06:02.131Z,8.50
2018-02-13T21:08:30.504Z,9.67
2018-02-13T21:10:58.999Z,8.93
2018-02-13T21:13:27.984Z,10.70
2018-02-13T21:15:56.779Z,10.03
2018-02-13T21:18:25.203Z,9.37
2018-02-13T21:20:54.351Z,12.50
2018-02-13T21:23:22.831Z,10.87
2018-02-13T21:25:51.335Z,9.77
2018-02-13T21:28:19.792Z,12.43
2018-02-13T21:30:48.380Z,13.70
2018-02-13T21:33:17.079Z,15.60
2018-02-13T21:35:45.559Z,14.23
2018-02-13T21:38:14.092Z,13.97
2018-02-13T21:40:42.395Z,14.20
2018-02-13T21:43:11.076Z,14.00
2018-02-13T21:45:39.572Z,11.83
2018-02-13T21:48:08.144Z,12.23
2018-02-13T21:50:36.632Z,11.60
2018-02-13T21:53:05.048Z,13.07
2018-02-13T21:55:34.270Z,9.77
2018-02-13T21:58:02.791Z,12.70
2018-02-13T22:00:31.232Z,15.47
2018-02-13T22:02:59.636Z,14.00
2018-02-13T22:05:28.124Z,11.53
2018-02-13T22:07:56.620Z,11.93
2018-02-13T22:10:25.092Z,12.83
2018-02-13T22:12:53.527Z,15.17
2018-02-13T22:15:22.030Z,16.93
2018-02-13T22:17:50.651Z,15.13
2018-02-13T22:20:19.138Z,15.60
2018-02-13T22:22:47.582Z,13.70
2018-02-13T22:25:15.892Z,11.60
2018-02-13T22:27:44.359Z,12.50
2018-02-13T22:30:12.795Z,11.87
2018-02-13T22:32:41.219Z,13.87
2018-02-13T22:35:09.593Z,15.63
2018-02-13T22:37:38.008Z,14.20
2018-02-13T22:40:07.993Z,15.23
2018-02-13T22:42:36.376Z,15.33
2018-02-13T22:45:04.742Z,13.37
2018-02-13T22:47:33.206Z,12.10
2018-02-13T22:50:01.712Z,11.97
2018-02-13T22:52:31.023Z,11.90
2018-02-13T22:54:59.461Z,12.07
2018-02-13T22:57:27.938Z,13.53
2018-02-13T22:59:56.432Z,15.70
2018-02-13T23:02:24.888Z,14.50
2018-02-13T23:04:53.320Z,13.37
2018-02-13T23:07:21.739Z,16.73
2018-02-13T23:09:50.043Z,14.97
2018-02-13T23:12:18.543Z,14.83
2018-02-13T23:14:47.032Z,13.03
2018-02-13T23:17:15.512Z,15.37
2018-02-13T23:19:45.392Z,12.67
2018-02-13T23:22:13.892Z,13.37
2018-02-13T23:24:42.381Z,14.10
2018-02-13T23:27:10.840Z,13.43
2018-02-13T23:29:39.232Z,13.13
2018-02-13T23:32:07.694Z,13.77
2018-02-13T23:34:36.193Z,13.27
2018-02-13T23:37:04.673Z,12.63
2018-02-13T23:39:33.141Z,12.03
2018-02-13T23:42:01.653Z,20.13
2018-02-13T23:44:30.234Z,13.57
2018-02-13T23:46:58.676Z,12.67
2018-02-13T23:49:27.081Z,15.70
2018-02-13T23:51:55.573Z,13.17
2018-02-13T23:54:23.860Z,14.93
2018-02-13T23:56:52.293Z,14.43
2018-02-13T23:59:20.800Z,15.13
